Time;durP1;ratioP1;P1;durP2;ratioP2;P2;SDS_P1;SDS_P2;PMS_P1;PMS_P2;Temp;Humidity;BMP_temperature;BMP_pressure;BME280_temperature;BME280_humidity;BME280_pressure;Samples;Min_cycle;Max_cycle;Signal;HPM_P1;HPM_P2
2022/10/20 00:00:19;;;;;;;14.07;7.25;;;;;;;10.53;77.96;101615.00;4900461;29;20039;-94
2022/10/20 00:02:45;;;;;;;13.35;7.07;;;;;;;10.50;77.67;101595.75;4900257;29;20024;-93
2022/10/20 00:05:10;;;;;;;12.70;6.60;;;;;;;10.52;77.77;101593.91;4917460;29;20036;-95
2022/10/20 00:07:36;;;;;;;12.80;7.10;;;;;;;10.50;77.71;101596.59;4900013;29;20023;-93
2022/10/20 00:10:01;;;;;;;8.82;6.53;;;;;;;10.44;77.71;101580.88;4917204;29;20032;-95
2022/10/20 00:12:26;;;;;;;10.50;7.18;;;;;;;10.42;78.09;101569.50;4896918;29;20031;-94
2022/10/20 00:14:52;;;;;;;13.73;6.75;;;;;;;10.43;78.39;101577.38;4890158;29;20119;-94
2022/10/20 00:17:17;;;;;;;11.52;7.20;;;;;;;10.43;78.76;101579.16;4900096;29;20042;-94
2022/10/20 00:19:46;;;;;;;10.18;6.72;;;;;;;10.40;78.80;101577.47;4899977;29;20115;-95
2022/10/20 00:22:11;;;;;;;9.88;7.15;;;;;;;10.41;78.98;101571.28;4917105;29;20510;-95
2022/10/20 00:24:37;;;;;;;12.98;7.65;;;;;;;10.46;79.25;101579.09;4917194;29;20024;-95
2022/10/20 00:27:02;;;;;;;11.30;7.50;;;;;;;10.37;79.24;101561.69;4900120;29;20538;-93
2022/10/20 00:29:27;;;;;;;14.65;7.90;;;;;;;10.37;79.69;101559.06;4917154;29;20447;-94
2022/10/20 00:31:53;;;;;;;11.35;6.78;;;;;;;10.46;79.04;101581.72;4900223;29;20029;-94
2022/10/20 00:34:18;;;;;;;18.38;8.50;;;;;;;10.40;79.37;101568.69;4917401;29;20060;-95
2022/10/20 00:36:43;;;;;;;13.25;7.53;;;;;;;10.42;78.91;101556.28;4899984;29;20028;-96
2022/10/20 00:39:09;;;;;;;13.52;8.20;;;;;;;10.46;79.11;101569.38;4899784;29;20115;-95
2022/10/20 00:41:34;;;;;;;14.57;7.57;;;;;;;10.38;79.29;101555.50;4888358;29;20020;-95
2022/10/20 00:44:21;;;;;;;14.77;7.72;;;;;;;10.32;79.75;101539.81;4894753;29;20024;-94
2022/10/20 00:46:47;;;;;;;12.63;8.20;;;;;;;10.31;79.93;101538.09;4899795;29;20035;-94
2022/10/20 00:49:24;;;;;;;13.20;8.25;;;;;;;10.37;79.62;101542.34;4899953;29;20032;-94
2022/10/20 00:51:51;;;;;;;11.98;7.90;;;;;;;10.34;80.17;101537.13;4899873;29;20028;-94
2022/10/20 00:54:21;;;;;;;13.25;8.15;;;;;;;10.40;79.88;101545.75;4900192;29;20080;-94
2022/10/20 00:56:47;;;;;;;16.90;8.20;;;;;;;10.36;79.73;101524.75;4906407;29;20381;-95
2022/10/20 00:59:17;;;;;;;15.25;8.23;;;;;;;10.35;80.68;101523.00;4918595;29;20027;-94
2022/10/20 01:01:43;;;;;;;13.27;8.50;;;;;;;10.30;81.08;101536.34;4918658;29;20482;-94
2022/10/20 01:04:09;;;;;;;15.90;8.00;;;;;;;10.27;80.14;101530.28;4921233;29;20024;-94
2022/10/20 01:06:35;;;;;;;14.40;8.27;;;;;;;10.31;80.27;101534.59;4899872;29;20067;-93
2022/10/20 01:09:01;;;;;;;11.90;7.97;;;;;;;10.41;80.73;101533.41;4899892;29;20051;-95
2022/10/20 01:11:51;;;;;;;11.48;7.10;;;;;;;10.42;79.48;101541.28;4916308;29;20032;-93
2022/10/20 01:14:46;;;;;;;16.20;8.10;;;;;;;10.40;79.90;101531.69;4916424;29;20032;-94
2022/10/20 01:17:39;;;;;;;17.52;8.63;;;;;;;10.42;79.90;101525.44;4899689;29;20035;-94
2022/10/20 01:20:23;;;;;;;13.57;7.47;;;;;;;10.45;79.44;101514.78;4899570;29;20027;-94
2022/10/20 01:23:03;;;;;;;12.82;7.82;;;;;;;10.33;79.62;101487.81;4900387;29;20047;-94
2022/10/20 01:25:52;;;;;;;13.60;8.48;;;;;;;10.39;79.87;101496.44;4920065;29;20535;-94
2022/10/20 01:28:21;;;;;;;13.00;8.43;;;;;;;10.33;80.03;101486.03;4911424;29;20036;-95
2022/10/20 01:30:55;;;;;;;12.25;8.85;;;;;;;10.28;80.37;101465.94;4918600;29;20118;-94
2022/10/20 01:33:41;;;;;;;13.93;7.78;;;;;;;10.38;79.76;101483.25;4918539;29;20070;-94
2022/10/20 01:36:12;;;;;;;12.35;7.47;;;;;;;10.30;79.84;101462.34;4919796;29;20479;-94
2022/10/20 01:38:53;;;;;;;16.15;8.48;;;;;;;10.23;79.40;101458.97;4920285;29;20473;-95
2022/10/20 01:41:33;;;;;;;13.05;7.40;;;;;;;10.21;79.46;101470.50;4909931;29;20482;-95
2022/10/20 01:44:03;;;;;;;13.10;7.70;;;;;;;10.12;80.45;101452.28;4884327;29;20032;-94
2022/10/20 01:46:30;;;;;;;14.60;8.45;;;;;;;10.12;80.28;101445.22;4884046;29;20020;-95
2022/10/20 01:48:59;;;;;;;13.32;8.18;;;;;;;10.04;79.72;101435.78;4883869;29;20510;-95
2022/10/20 01:51:24;;;;;;;11.00;8.23;;;;;;;10.00;79.89;101436.78;4884260;29;20028;-95
2022/10/20 01:53:49;;;;;;;14.52;8.05;;;;;;;10.07;78.90;101455.06;4910643;29;20039;-95
2022/10/20 01:56:20;;;;;;;13.73;8.43;;;;;;;10.02;79.75;101461.34;4902968;29;20020;-94
2022/10/20 01:59:20;;;;;;;16.73;7.88;;;;;;;9.92;78.18;101466.03;4902737;29;20040;-95
2022/10/20 02:02:22;;;;;;;11.02;7.82;;;;;;;9.87;79.17;101458.22;4889073;29;20421;-96
2022/10/20 02:04:56;;;;;;;16.85;8.02;;;;;;;9.87;78.79;101479.34;4898399;29;20064;-94
2022/10/20 02:07:28;;;;;;;13.90;7.28;;;;;;;9.76;78.44;101462.09;4903229;29;20036;-95
2022/10/20 02:10:04;;;;;;;17.33;8.50;;;;;;;9.77;79.15;101454.13;4902358;29;20028;-94
2022/10/20 02:12:34;;;;;;;12.02;8.23;;;;;;;9.72;80.17;101450.72;4902619;29;20112;-95
2022/10/20 02:15:03;;;;;;;12.88;8.80;;;;;;;9.74;79.56;101462.09;4902359;29;20064;-95
2022/10/20 02:17:28;;;;;;;11.32;7.13;;;;;;;9.61;78.12;101451.03;4902454;29;20372;-94
2022/10/20 02:19:55;;;;;;;10.45;7.30;;;;;;;9.59;77.68;101450.19;4902488;29;20115;-94
2022/10/20 02:22:22;;;;;;;13.95;7.43;;;;;;;9.60;79.19;101443.13;4902351;29;20612;-94
2022/10/20 02:24:48;;;;;;;14.65;9.23;;;;;;;9.58;80.12;101426.47;4902417;29;20031;-94
2022/10/20 02:27:20;;;;;;;13.27;8.27;;;;;;;9.65;79.88;101442.13;4902357;29;20032;-94
2022/10/20 02:30:07;;;;;;;11.60;7.85;;;;;;;9.62;79.60;101415.78;4919164;29;20032;-95
2022/10/20 02:32:35;;;;;;;13.27;8.23;;;;;;;9.63;80.33;101430.72;4901934;29;20043;-95
2022/10/20 02:35:05;;;;;;;13.63;8.88;;;;;;;9.52;78.87;101410.81;4901086;29;20044;-94
2022/10/20 02:37:31;;;;;;;9.98;7.55;;;;;;;9.52;79.78;101406.41;4919294;29;20056;-94
2022/10/20 02:39:56;;;;;;;15.55;8.55;;;;;;;9.53;80.26;101402.84;4901951;29;20024;-95
2022/10/20 02:42:21;;;;;;;11.30;7.93;;;;;;;9.52;80.31;101393.19;4900197;29;20029;-95
2022/10/20 02:44:47;;;;;;;17.67;9.20;;;;;;;9.56;80.21;101394.84;4883043;29;20063;-94
2022/10/20 02:47:12;;;;;;;17.15;10.18;;;;;;;9.56;80.35;101370.19;4899591;29;20032;-95
2022/10/20 02:49:38;;;;;;;14.13;8.80;;;;;;;9.61;80.21;101378.88;4882977;29;20031;-95
2022/10/20 02:52:03;;;;;;;14.13;8.73;;;;;;;9.61;80.88;101366.56;4882730;29;20039;-94
2022/10/20 02:54:28;;;;;;;15.52;9.02;;;;;;;9.63;80.68;101371.78;4882898;29;20025;-94
2022/10/20 02:56:54;;;;;;;14.00;8.90;;;;;;;9.66;80.51;101367.28;4882754;29;20119;-94
2022/10/20 02:59:20;;;;;;;15.27;10.05;;;;;;;9.69;80.94;101367.19;4883127;29;20032;-94
2022/10/20 03:01:46;;;;;;;17.10;9.68;;;;;;;9.73;81.23;101362.69;4882699;29;20024;-95
2022/10/20 03:04:12;;;;;;;13.82;8.63;;;;;;;9.65;80.58;101347.09;4892954;29;20031;-94
2022/10/20 03:06:39;;;;;;;15.82;9.80;;;;;;;9.62;81.23;101338.38;4901395;29;20028;-94
2022/10/20 03:09:04;;;;;;;16.15;10.25;;;;;;;9.63;81.13;101327.75;4901275;29;20432;-94
2022/10/20 03:11:30;;;;;;;18.27;10.02;;;;;;;9.66;81.49;101335.59;4901262;29;20031;-94
2022/10/20 03:13:55;;;;;;;22.05;10.27;;;;;;;9.57;80.95;101322.66;4901002;29;20028;-93
2022/10/20 03:16:21;;;;;;;15.93;9.52;;;;;;;9.58;81.38;101324.38;4901229;29;20372;-94
2022/10/20 03:18:46;;;;;;;13.88;9.68;;;;;;;9.66;81.49;101332.97;4901101;29;20395;-94
2022/10/20 03:21:12;;;;;;;13.73;9.25;;;;;;;9.69;81.59;101332.84;4901104;29;20024;-95
2022/10/20 03:23:37;;;;;;;15.57;9.60;;;;;;;9.67;81.83;101313.56;4918033;29;20032;-94
2022/10/20 03:26:04;;;;;;;16.65;10.23;;;;;;;9.70;82.45;101313.50;4906985;29;20051;-95
2022/10/20 03:28:30;;;;;;;16.52;10.18;;;;;;;9.70;82.16;101305.56;4923955;29;20035;-94
2022/10/20 03:30:56;;;;;;;17.60;9.90;;;;;;;9.69;82.45;101314.38;4916562;29;20396;-95
2022/10/20 03:33:21;;;;;;;15.80;10.80;;;;;;;9.74;81.59;101302.81;4908054;29;20034;-93
2022/10/20 03:35:46;;;;;;;16.75;9.30;;;;;;;9.79;81.65;101303.53;4924981;29;20036;-94
2022/10/20 03:38:12;;;;;;;19.55;10.77;;;;;;;9.77;82.48;101295.69;4926395;29;20018;-94
2022/10/20 03:40:37;;;;;;;17.83;11.32;;;;;;;9.79;82.67;101299.16;4926238;29;20020;-94
2022/10/20 03:43:03;;;;;;;18.40;10.05;;;;;;;9.80;83.01;101298.25;4926108;29;20036;-95
2022/10/20 03:45:28;;;;;;;19.60;10.30;;;;;;;9.77;82.59;101298.31;4926026;29;20020;-94
2022/10/20 03:47:54;;;;;;;16.10;10.18;;;;;;;9.81;82.65;101297.31;4942417;29;20020;-95
2022/10/20 03:50:19;;;;;;;17.85;10.95;;;;;;;9.87;82.77;101301.56;4942275;29;20063;-95
2022/10/20 03:52:47;;;;;;;21.65;11.27;;;;;;;9.83;82.95;101286.69;4925315;29;20013;-94
2022/10/20 03:55:13;;;;;;;18.45;11.38;;;;;;;9.91;82.73;101290.84;4903846;29;20511;-94
2022/10/20 03:57:38;;;;;;;20.65;11.35;;;;;;;9.90;83.18;101282.97;4921025;29;20028;-94
2022/10/20 04:00:04;;;;;;;17.65;10.98;;;;;;;9.87;82.71;101277.78;4903325;29;20035;-94
2022/10/20 04:02:35;;;;;;;18.13;11.88;;;;;;;9.96;83.92;101286.28;4902822;29;20031;-95
2022/10/20 04:05:01;;;;;;;20.20;12.37;;;;;;;9.94;83.31;101281.97;4900215;29;20028;-95
2022/10/20 04:07:26;;;;;;;20.42;12.05;;;;;;;9.89;83.56;101278.63;4900338;29;20415;-94
2022/10/20 04:09:52;;;;;;;18.73;11.32;;;;;;;9.97;82.75;101297.72;4900524;29;20111;-94
2022/10/20 04:12:17;;;;;;;22.38;11.52;;;;;;;9.89;83.05;101275.97;4899763;29;20039;-95
2022/10/20 04:14:43;;;;;;;17.75;11.55;;;;;;;9.94;82.83;101280.19;4900209;29;20060;-94
2022/10/20 04:17:08;;;;;;;20.25;12.23;;;;;;;9.97;83.51;101274.81;4900172;29;20038;-95
2022/10/20 04:19:33;;;;;;;24.90;14.13;;;;;;;10.10;83.17;101277.09;4900161;29;20024;-95
2022/10/20 04:21:59;;;;;;;21.27;12.35;;;;;;;10.06;82.68;101273.66;4900288;29;20024;-94
2022/10/20 04:24:24;;;;;;;23.02;12.25;;;;;;;10.15;83.45;101276.03;4900166;29;20035;-94
2022/10/20 04:26:49;;;;;;;21.17;12.27;;;;;;;10.13;83.33;101254.09;4900038;29;20032;-94
2022/10/20 04:29:15;;;;;;;22.58;12.85;;;;;;;10.22;83.89;101245.84;4900284;29;20017;-94
2022/10/20 04:31:40;;;;;;;21.25;13.23;;;;;;;10.27;84.17;101242.25;4899757;29;20025;-95
2022/10/20 04:34:05;;;;;;;23.35;13.23;;;;;;;10.34;84.49;101234.03;4917069;29;20111;-94
2022/10/20 04:36:31;;;;;;;24.20;13.38;;;;;;;10.44;85.19;101238.13;4897335;29;20052;-94
2022/10/20 04:38:56;;;;;;;24.35;12.63;;;;;;;10.53;85.27;101242.22;4881755;29;20028;-95
2022/10/20 04:41:21;;;;;;;26.58;13.65;;;;;;;10.64;84.88;101233.94;4882537;29;20119;-94
2022/10/20 04:43:51;;;;;;;24.13;13.45;;;;;;;10.68;85.21;101220.56;4904769;29;20063;-94
2022/10/20 04:46:17;;;;;;;25.20;13.40;;;;;;;10.78;85.24;101229.06;4901404;29;20031;-95
2022/10/20 04:48:43;;;;;;;23.42;14.20;;;;;;;10.83;85.07;101216.53;4916830;29;20028;-94
2022/10/20 04:51:10;;;;;;;21.85;13.30;;;;;;;10.91;85.35;101221.53;4900707;29;20032;-95
2022/10/20 04:53:36;;;;;;;21.77;13.40;;;;;;;10.93;85.26;101217.06;4917691;29;20377;-94
2022/10/20 04:56:04;;;;;;;20.85;13.27;;;;;;;10.96;84.95;101196.66;4917576;29;20111;-94
2022/10/20 04:58:29;;;;;;;21.92;12.70;;;;;;;10.95;84.63;101183.47;4919164;29;20036;-94
2022/10/20 05:01:03;;;;;;;22.25;13.35;;;;;;;11.02;84.83;101198.22;4904802;29;20016;-95
2022/10/20 05:03:28;;;;;;;23.95;12.70;;;;;;;11.09;84.75;101198.84;4905594;29;20088;-93
2022/10/20 05:05:54;;;;;;;23.20;13.13;;;;;;;11.09;84.45;101191.75;4905232;29;20036;-94
2022/10/20 05:08:19;;;;;;;24.02;13.63;;;;;;;11.18;84.43;101191.44;4905923;29;20087;-94
2022/10/20 05:10:44;;;;;;;21.08;12.88;;;;;;;11.09;84.08;101172.38;4903971;29;20052;-95
2022/10/20 05:13:10;;;;;;;23.38;13.65;;;;;;;11.12;84.34;101177.56;4904293;29;20067;-94
2022/10/20 05:15:35;;;;;;;23.73;13.35;;;;;;;11.15;84.51;101190.69;4923043;29;20119;-96
2022/10/20 05:18:00;;;;;;;23.10;12.82;;;;;;;11.13;83.58;101205.75;4908314;29;20056;-95
2022/10/20 05:20:26;;;;;;;21.65;13.73;;;;;;;11.15;84.24;101199.50;4908521;29;20036;-94
2022/10/20 05:23:13;;;;;;;19.13;11.75;;;;;;;11.32;83.53;101205.94;4905666;29;20020;-94
2022/10/20 05:25:39;;;;;;;19.35;11.70;;;;;;;11.18;83.97;101174.69;4903926;29;20064;-94
2022/10/20 05:28:05;;;;;;;19.58;12.13;;;;;;;11.23;83.54;101168.28;4904420;29;20530;-95
2022/10/20 05:30:32;;;;;;;18.83;11.10;;;;;;;11.21;83.62;101156.91;4903905;29;20055;-94
2022/10/20 05:32:57;;;;;;;21.92;12.57;;;;;;;11.16;83.70;101181.84;4904190;29;20504;-93
2022/10/20 05:35:23;;;;;;;22.77;13.07;;;;;;;11.12;82.91;101202.25;4907971;29;20052;-95
2022/10/20 05:37:48;;;;;;;19.27;11.77;;;;;;;11.12;83.63;101186.38;4905599;29;20036;-94
2022/10/20 05:40:14;;;;;;;20.70;12.13;;;;;;;11.13;83.73;101179.28;4903751;29;20383;-95
2022/10/20 05:42:39;;;;;;;21.83;13.05;;;;;;;11.07;84.02;101183.03;4924319;29;20031;-95
2022/10/20 05:45:05;;;;;;;20.65;12.40;;;;;;;11.10;84.10;101190.88;4904171;29;20499;-94
2022/10/20 05:47:31;;;;;;;18.77;12.48;;;;;;;11.03;84.01;101170.84;4903492;29;20029;-95
2022/10/20 05:49:56;;;;;;;23.58;12.90;;;;;;;11.05;84.03;101171.66;4902878;29;20111;-94
2022/10/20 05:52:21;;;;;;;19.40;12.50;;;;;;;11.06;84.25;101165.44;4903275;29;20283;-94
2022/10/20 05:54:47;;;;;;;19.50;12.02;;;;;;;11.10;83.87;101168.84;4902974;29;20035;-94
2022/10/20 05:57:12;;;;;;;22.95;13.07;;;;;;;11.06;83.84;101168.09;4903099;29;20028;-94
2022/10/20 05:59:37;;;;;;;20.63;12.48;;;;;;;11.09;84.24;101183.81;4903303;29;20031;-94
2022/10/20 06:02:03;;;;;;;21.77;13.15;;;;;;;10.98;83.91;101171.00;4904827;29;20016;-94
2022/10/20 06:04:30;;;;;;;22.95;12.70;;;;;;;11.02;84.24;101182.34;4903138;29;20024;-94
2022/10/20 06:06:56;;;;;;;19.95;12.18;;;;;;;11.03;83.78;101184.06;4903821;29;20074;-94
2022/10/20 06:09:23;;;;;;;20.50;12.15;;;;;;;11.05;84.23;101189.28;4916936;29;20475;-92
2022/10/20 06:11:48;;;;;;;21.02;11.70;;;;;;;11.06;84.25;101189.25;4921232;29;20550;-94
2022/10/20 06:14:14;;;;;;;23.08;13.02;;;;;;;11.07;83.97;101190.13;4921490;29;20024;-93
2022/10/20 06:16:39;;;;;;;16.95;11.05;;;;;;;11.00;83.56;101184.16;4921590;29;20032;-94
2022/10/20 06:19:06;;;;;;;22.95;12.65;;;;;;;11.03;84.00;101169.97;4921808;29;20023;-94
2022/10/20 06:21:32;;;;;;;15.88;11.27;;;;;;;11.07;83.96;101175.09;4909424;29;20028;-94
2022/10/20 06:23:59;;;;;;;21.58;13.02;;;;;;;11.07;84.38;101184.81;4919149;29;20479;-94
2022/10/20 06:26:28;;;;;;;23.60;12.43;;;;;;;11.04;84.16;101177.84;4902012;29;20027;-93
2022/10/20 06:28:55;;;;;;;18.55;12.13;;;;;;;11.11;84.22;101189.94;4919358;29;20028;-95
2022/10/20 06:31:31;;;;;;;23.70;13.30;;;;;;;11.16;84.57;101205.66;4909760;29;20028;-94
2022/10/20 06:33:58;;;;;;;20.80;11.85;;;;;;;11.04;84.37;101185.78;4885450;29;20028;-95
2022/10/20 06:36:24;;;;;;;21.05;12.77;;;;;;;11.17;84.15;101179.13;4901416;29;20155;-94
2022/10/20 06:38:56;;;;;;;22.20;12.70;;;;;;;11.15;84.18;101167.75;4883119;29;20084;-93
2022/10/20 06:41:22;;;;;;;19.77;12.38;;;;;;;11.21;84.23;101178.09;4893628;29;20024;-96
2022/10/20 06:43:47;;;;;;;19.52;11.82;;;;;;;11.26;84.24;101175.28;4901750;29;20031;-94
2022/10/20 06:46:16;;;;;;;21.27;12.45;;;;;;;11.35;84.23;101182.00;4910882;29;20028;-95
2022/10/20 06:48:42;;;;;;;21.40;13.10;;;;;;;11.34;84.10;101164.41;4918006;29;20035;-94
2022/10/20 06:51:11;;;;;;;21.55;12.15;;;;;;;11.39;84.13;101170.38;4912165;29;20048;-95
2022/10/20 06:53:37;;;;;;;21.58;12.68;;;;;;;11.45;83.93;101180.72;4902071;29;20056;-94
2022/10/20 06:56:09;;;;;;;27.17;14.23;;;;;;;11.43;84.60;101175.50;4918801;29;20079;-94
2022/10/20 06:58:35;;;;;;;20.55;13.25;;;;;;;11.42;84.22;101160.56;4901957;29;20134;-94
2022/10/20 07:01:06;;;;;;;19.50;13.13;;;;;;;11.47;84.43;101162.97;4901528;29;20028;-94
2022/10/20 07:03:34;;;;;;;24.47;13.33;;;;;;;11.52;83.98;101160.16;4901578;29;20032;-94
2022/10/20 07:05:59;;;;;;;21.55;12.75;;;;;;;11.49;84.46;101137.34;4901369;29;20500;-93
2022/10/20 07:08:30;;;;;;;21.02;13.63;;;;;;;11.56;83.91;101153.81;4919128;29;20104;-94
2022/10/20 07:11:36;;;;;;;19.35;12.77;;;;;;;11.74;83.75;101155.75;4902246;29;20028;-95
2022/10/20 07:14:02;;;;;;;20.65;13.27;;;;;;;11.72;83.50;101155.81;4901305;29;20038;-95
2022/10/20 07:16:30;;;;;;;22.67;14.38;;;;;;;11.76;83.64;101167.16;4903127;29;20391;-94
2022/10/20 07:18:56;;;;;;;24.10;13.23;;;;;;;11.75;83.42;101150.41;4902669;29;20115;-93
2022/10/20 07:21:28;;;;;;;21.10;13.20;;;;;;;11.79;83.11;101150.28;4901562;29;20479;-93
2022/10/20 07:23:55;;;;;;;23.13;12.27;;;;;;;11.92;83.01;101159.47;4902887;29;20086;-95
2022/10/20 07:26:26;;;;;;;23.15;13.52;;;;;;;11.98;82.77;101164.53;4902531;29;20589;-96
2022/10/20 07:28:54;;;;;;;23.08;12.98;;;;;;;12.10;82.57;101181.72;4903958;29;20028;-95
2022/10/20 07:31:29;;;;;;;19.48;13.13;;;;;;;12.08;82.15;101168.53;4886770;29;20092;-94
2022/10/20 07:33:57;;;;;;;23.77;12.95;;;;;;;12.15;81.50;101170.00;4901215;29;20028;-94
2022/10/20 07:36:28;;;;;;;16.98;11.73;;;;;;;12.27;81.84;101155.38;4901070;29;20044;-93
2022/10/20 07:38:56;;;;;;;21.90;12.48;;;;;;;12.30;82.00;101164.97;4901208;29;20553;-94
2022/10/20 07:41:22;;;;;;;18.85;11.77;;;;;;;12.33;81.34;101165.72;4901381;29;20024;-95
2022/10/20 07:43:47;;;;;;;26.42;13.27;;;;;;;12.35;80.74;101152.41;4902432;29;20123;-95
2022/10/20 07:46:13;;;;;;;19.48;11.82;;;;;;;12.48;81.26;101166.84;4902131;29;20066;-94
2022/10/20 07:48:39;;;;;;;22.38;12.75;;;;;;;12.59;80.23;101182.31;4901181;29;20480;-95
2022/10/20 07:51:27;;;;;;;17.95;11.93;;;;;;;12.71;80.23;101187.09;4901365;29;20024;-94
2022/10/20 07:53:54;;;;;;;19.25;12.65;;;;;;;12.76;79.98;101169.19;4902023;29;20032;-94
2022/10/20 07:56:20;;;;;;;19.85;12.80;;;;;;;12.84;79.58;101171.50;4901431;29;20039;-94
2022/10/20 07:58:46;;;;;;;22.05;12.23;;;;;;;12.94;79.92;101167.50;4900853;29;20032;-94
2022/10/20 08:01:12;;;;;;;18.17;11.95;;;;;;;13.11;79.03;101183.53;4917854;29;20488;-95
2022/10/20 08:03:37;;;;;;;17.98;12.63;;;;;;;13.11;78.05;101170.28;4918360;29;20034;-95
2022/10/20 08:06:04;;;;;;;17.13;11.20;;;;;;;13.13;78.22;101164.88;4901650;29;20028;-95
2022/10/20 08:08:29;;;;;;;16.77;12.13;;;;;;;13.18;77.89;101158.41;4904191;29;20024;-94
2022/10/20 08:10:56;;;;;;;24.98;13.55;;;;;;;13.39;77.19;101151.31;4920385;29;20491;-94
2022/10/20 08:13:25;;;;;;;17.25;12.32;;;;;;;13.69;76.58;101148.97;4902324;29;20128;-96
2022/10/20 08:15:51;;;;;;;17.98;12.38;;;;;;;13.70;76.35;101147.16;4918067;29;20032;-95
2022/10/20 08:18:16;;;;;;;19.98;11.40;;;;;;;13.63;76.35;101157.25;4902449;29;20365;-95
2022/10/20 08:20:42;;;;;;;17.10;11.57;;;;;;;13.64;76.35;101166.06;4920537;29;20110;-95
2022/10/20 08:23:07;;;;;;;19.13;11.70;;;;;;;13.82;76.51;101151.91;4920202;29;20028;-95
2022/10/20 08:25:33;;;;;;;16.63;11.05;;;;;;;14.12;75.04;101164.63;4904130;29;20027;-95
2022/10/20 08:27:59;;;;;;;19.65;11.45;;;;;;;13.90;75.57;101141.75;4918554;29;20391;-96
2022/10/20 08:30:24;;;;;;;17.95;11.07;;;;;;;13.85;75.52;101150.88;4901836;29;20119;-95
2022/10/20 08:32:51;;;;;;;19.27;11.20;;;;;;;13.91;76.15;101148.78;4903498;29;20071;-94
2022/10/20 08:35:17;;;;;;;18.42;11.88;;;;;;;13.85;75.46;101156.19;4906345;29;20099;-94
2022/10/20 08:37:42;;;;;;;19.58;11.05;;;;;;;13.91;75.50;101150.59;4907530;29;20028;-95
2022/10/20 08:40:15;;;;;;;19.20;11.23;;;;;;;13.82;75.54;101141.28;4905381;29;20108;-95
2022/10/20 08:42:44;;;;;;;14.45;11.15;;;;;;;13.97;75.70;101158.25;4905525;29;20078;-95
2022/10/20 08:45:20;;;;;;;17.30;11.10;;;;;;;14.03;75.77;101160.59;4907162;29;20032;-95
2022/10/20 08:47:48;;;;;;;15.73;11.52;;;;;;;14.14;74.75;101155.63;4905428;29;20040;-94
2022/10/20 08:50:16;;;;;;;18.08;11.65;;;;;;;14.58;74.18;101154.34;4904772;29;20024;-94
2022/10/20 08:52:43;;;;;;;17.23;11.00;;;;;;;15.37;71.84;101126.09;4904966;29;20035;-95
2022/10/20 08:55:19;;;;;;;14.55;9.75;;;;;;;16.16;69.15;101152.72;4905534;29;20024;-95
2022/10/20 08:57:47;;;;;;;15.52;10.70;;;;;;;16.00;68.06;101119.91;4922414;29;20064;-95
2022/10/20 09:00:17;;;;;;;15.88;8.65;;;;;;;16.25;67.44;101116.63;4905389;29;20028;-95
2022/10/20 09:02:43;;;;;;;18.10;9.63;;;;;;;17.01;66.21;101116.47;4905761;29;20032;-96
2022/10/20 09:05:12;;;;;;;12.50;9.25;;;;;;;17.15;64.23;101124.47;4906751;29;20024;-94
2022/10/20 09:11:01;;;;;;;12.75;9.15;;;;;;;16.39;66.58;101123.81;4924207;29;20059;-95
2022/10/20 09:13:30;;;;;;;12.98;9.45;;;;;;;15.82;68.29;101121.81;4921741;29;20021;-95
2022/10/20 09:16:02;;;;;;;12.57;9.45;;;;;;;15.55;69.88;101118.88;4905521;29;20032;-95
2022/10/20 09:18:28;;;;;;;12.55;8.98;;;;;;;15.52;69.57;101140.34;4904485;29;20099;-95
2022/10/20 09:21:04;;;;;;;17.75;9.68;;;;;;;15.28;70.83;101116.81;4922688;29;20063;-95
2022/10/20 09:23:42;;;;;;;12.32;9.43;;;;;;;15.23;71.44;101134.00;4905030;29;20031;-95
2022/10/20 09:26:20;;;;;;;14.40;10.05;;;;;;;15.07;71.99;101117.16;4906967;29;20025;-96
2022/10/20 09:28:50;;;;;;;15.60;10.13;;;;;;;15.10;72.34;101132.94;4905575;29;20079;-95
2022/10/20 09:31:22;;;;;;;15.38;9.85;;;;;;;14.99;72.34;101104.25;4907157;29;20028;-95
2022/10/20 09:33:48;;;;;;;17.50;9.77;;;;;;;15.00;72.51;101108.59;4905673;29;20520;-95
2022/10/20 09:36:17;;;;;;;15.30;10.18;;;;;;;14.90;73.40;101116.25;4905056;29;20051;-96
2022/10/20 09:38:46;;;;;;;14.25;9.80;;;;;;;14.97;72.88;101128.28;4904856;29;20028;-95
2022/10/20 09:41:16;;;;;;;14.75;9.90;;;;;;;14.98;73.18;101131.81;4905574;29;20380;-95
2022/10/20 09:44:07;;;;;;;16.27;10.73;;;;;;;15.14;72.71;101140.69;4922197;29;20024;-95
2022/10/20 09:46:47;;;;;;;15.30;10.27;;;;;;;15.12;72.74;101126.59;4887378;29;20052;-96
2022/10/20 09:49:36;;;;;;;19.75;11.45;;;;;;;15.09;72.51;101121.44;4904723;29;20106;-93
2022/10/20 09:52:14;;;;;;;14.40;10.70;;;;;;;14.93;72.72;101121.41;4904578;29;20020;-95
2022/10/20 09:54:39;;;;;;;17.95;11.25;;;;;;;15.00;73.51;101121.91;4903311;29;20028;-95
2022/10/20 09:57:07;;;;;;;17.90;10.85;;;;;;;14.98;73.96;101102.53;4920467;29;20028;-95
2022/10/20 09:59:37;;;;;;;16.05;11.15;;;;;;;15.03;73.82;101113.78;4904576;29;20024;-95
2022/10/20 10:02:23;;;;;;;17.77;10.95;;;;;;;15.05;73.61;101107.41;4905250;29;20028;-95
2022/10/20 10:04:53;;;;;;;13.88;9.95;;;;;;;15.00;73.92;101105.94;4904271;29;20071;-94
2022/10/20 10:07:24;;;;;;;17.35;10.75;;;;;;;15.02;74.03;101128.91;4921187;29;20039;-95
2022/10/20 10:10:05;;;;;;;13.53;9.50;;;;;;;14.97;74.34;101120.31;4906122;29;20502;-95
2022/10/20 10:12:33;;;;;;;19.70;9.98;;;;;;;14.93;75.47;101115.22;4884667;29;20476;-95
2022/10/20 10:15:21;;;;;;;13.70;10.07;;;;;;;15.08;75.09;101124.19;4889874;29;20053;-96
2022/10/20 10:17:47;;;;;;;14.38;10.55;;;;;;;14.90;75.98;101108.25;4909089;29;20436;-96
2022/10/20 10:20:12;;;;;;;17.30;10.77;;;;;;;15.00;76.65;101135.22;4904839;29;20095;-95
2022/10/20 10:22:41;;;;;;;19.83;11.30;;;;;;;14.91;76.46;101122.41;4903209;29;20024;-94
2022/10/20 10:25:16;;;;;;;16.67;11.23;;;;;;;14.93;77.61;101126.72;4902203;29;20396;-95
2022/10/20 10:28:15;;;;;;;16.90;11.07;;;;;;;14.88;77.25;101103.97;4902492;29;20507;-95
2022/10/20 10:30:41;;;;;;;18.65;11.70;;;;;;;14.79;78.14;101108.84;4903175;29;20400;-96
2022/10/20 10:33:25;;;;;;;19.15;10.75;;;;;;;14.76;77.70;101094.81;4908074;29;20091;-95
2022/10/20 10:35:51;;;;;;;19.30;12.40;;;;;;;14.70;78.31;101095.16;4906727;29;20068;-95
2022/10/20 10:38:16;;;;;;;19.40;11.57;;;;;;;14.67;79.04;101084.66;4907162;29;20024;-95
2022/10/20 10:41:07;;;;;;;15.65;11.50;;;;;;;14.62;79.26;101090.22;4914762;29;20186;-95
2022/10/20 10:43:46;;;;;;;20.90;12.95;;;;;;;14.59;79.84;101094.84;4927370;29;20020;-94
2022/10/20 10:46:52;;;;;;;17.83;11.63;;;;;;;14.59;79.64;101087.72;4911686;29;20087;-94
2022/10/20 10:49:27;;;;;;;18.20;12.27;;;;;;;14.53;80.39;101078.28;4943044;29;20020;-95
2022/10/20 10:52:07;;;;;;;25.55;12.68;;;;;;;14.56;81.37;101101.22;4926578;29;20046;-94
2022/10/20 10:54:41;;;;;;;24.60;13.43;;;;;;;14.54;81.63;101097.75;4943579;29;20091;-94
2022/10/20 10:57:31;;;;;;;20.63;13.43;;;;;;;14.50;81.24;101099.75;4926556;29;20026;-93
2022/10/20 11:00:00;;;;;;;19.42;13.55;;;;;;;14.40;82.35;101098.44;4917115;29;20040;-93
2022/10/20 11:03:12;;;;;;;21.90;13.25;;;;;;;14.47;81.71;101101.66;4919948;29;20055;-94
2022/10/20 11:05:56;;;;;;;21.70;13.13;;;;;;;14.42;82.51;101095.72;4919502;29;20031;-95
2022/10/20 11:08:55;;;;;;;23.60;13.48;;;;;;;14.30;83.15;101076.78;4919127;29;20031;-94
2022/10/20 11:11:34;;;;;;;20.88;13.77;;;;;;;14.21;84.42;101085.22;4900944;29;20032;-95
2022/10/20 11:14:13;;;;;;;21.55;13.80;;;;;;;14.27;85.20;101084.94;4901049;29;20035;-94
2022/10/20 11:16:57;;;;;;;20.38;13.50;;;;;;;14.34;84.07;101064.19;4901059;29;20028;-94
2022/10/20 11:19:31;;;;;;;20.95;14.77;;;;;;;14.27;84.68;101046.84;4901128;29;20024;-94
2022/10/20 11:22:22;;;;;;;26.15;15.45;;;;;;;14.37;84.30;101055.22;4900527;29;20118;-94
2022/10/20 11:25:12;;;;;;;23.40;15.15;;;;;;;14.36;84.15;101051.69;4901236;29;20020;-94
2022/10/20 11:27:37;;;;;;;23.23;12.63;;;;;;;14.46;84.60;101057.38;4900780;29;20039;-95
2022/10/20 11:30:20;;;;;;;24.65;14.13;;;;;;;14.42;83.95;101067.31;4901077;29;20024;-94